createdAt,value
2017-08-11T00:00:49.122Z,98418.05
2017-08-11T00:03:16.573Z,98414.91
2017-08-11T00:05:44.033Z,98394.94
2017-08-11T00:08:11.504Z,98375.63
2017-08-11T00:10:38.962Z,98351.85
2017-08-11T00:13:06.469Z,98359.27
2017-08-11T00:15:33.950Z,98359.99
2017-08-11T00:18:01.401Z,98347.77
2017-08-11T00:20:28.853Z,98373.22
2017-08-11T00:22:56.347Z,98377.27
2017-08-11T00:25:23.844Z,98373.19
2017-08-11T00:27:51.317Z,98369.84
2017-08-11T00:30:18.770Z,98371.05
2017-08-11T00:32:46.252Z,98381.07
2017-08-11T00:35:13.733Z,98388.31
2017-08-11T00:37:41.189Z,98382.77
2017-08-11T00:40:08.645Z,98392.69
2017-08-11T00:42:36.127Z,98388.70
2017-08-11T00:45:03.588Z,98385.52
2017-08-11T00:47:31.069Z,98366.55
2017-08-11T00:49:58.521Z,98354.56
2017-08-11T00:52:25.974Z,98364.66
2017-08-11T00:54:53.452Z,98324.29
2017-08-11T00:57:20.914Z,98292.11
2017-08-11T00:59:48.388Z,98304.68
2017-08-11T01:02:15.845Z,98297.05
2017-08-11T01:04:43.321Z,98308.25
2017-08-11T01:07:10.793Z,98326.84
2017-08-11T01:09:38.249Z,98326.66
2017-08-11T01:12:05.725Z,98351.41
2017-08-11T01:14:33.177Z,98368.62
2017-08-11T01:17:00.653Z,98346.39
2017-08-11T01:19:28.105Z,98336.98
2017-08-11T01:21:55.560Z,98321.83
2017-08-11T01:24:23.029Z,98309.14
2017-08-11T01:26:50.477Z,98294.97
2017-08-11T01:29:17.953Z,98289.41
2017-08-11T01:31:45.408Z,98342.56
2017-08-11T01:34:12.890Z,98353.33
2017-08-11T01:36:40.365Z,98337.30
2017-08-11T01:39:07.817Z,98314.41
2017-08-11T01:41:35.298Z,98290.89
2017-08-11T01:44:02.778Z,98235.97
2017-08-11T01:46:30.279Z,98264.69
2017-08-11T01:48:57.735Z,98271.94
2017-08-11T01:51:25.212Z,98278.44
2017-08-11T01:53:52.682Z,98308.95
2017-08-11T01:56:20.157Z,98327.52
2017-08-11T01:58:47.631Z,98290.27
2017-08-11T02:01:15.079Z,98299.19
2017-08-11T02:03:42.550Z,98297.70
2017-08-11T02:06:10.037Z,98265.16
2017-08-11T02:08:37.897Z,98266.20
2017-08-11T02:11:05.413Z,98262.09
2017-08-11T02:13:32.888Z,98262.34
2017-08-11T02:16:00.337Z,98252.28
2017-08-11T02:18:27.823Z,98272.75
2017-08-11T02:20:55.680Z,98240.39
2017-08-11T02:23:23.125Z,98236.64
2017-08-11T02:25:50.611Z,98275.22
2017-08-11T02:28:18.073Z,98277.94
2017-08-11T02:30:45.524Z,98280.42
2017-08-11T02:33:12.992Z,98299.42
2017-08-11T02:35:40.472Z,98317.56
2017-08-11T02:38:07.950Z,98319.63
2017-08-11T02:40:35.404Z,98315.22
2017-08-11T02:43:02.886Z,98301.98
2017-08-11T02:45:30.338Z,98300.55
2017-08-11T02:47:57.815Z,98291.70
2017-08-11T02:50:25.297Z,98230.42
2017-08-11T02:52:52.761Z,98246.77
2017-08-11T02:55:20.218Z,98295.63
2017-08-11T02:57:47.701Z,98314.50
2017-08-11T03:00:15.156Z,98300.17
2017-08-11T03:02:42.609Z,98293.80
2017-08-11T03:05:10.080Z,98230.55
2017-08-11T03:07:37.539Z,98256.86
2017-08-11T03:10:05.012Z,98306.11
2017-08-11T03:12:32.460Z,98295.27
2017-08-11T03:14:59.933Z,98248.52
2017-08-11T03:17:27.390Z,98270.05
2017-08-11T03:19:54.850Z,98280.09
2017-08-11T03:22:22.324Z,98284.52
2017-08-11T03:24:49.776Z,98290.98
2017-08-11T03:27:17.230Z,98349.11
2017-08-11T03:29:44.715Z,98298.66
2017-08-11T03:32:12.165Z,98239.02
2017-08-11T03:34:39.649Z,98205.34
2017-08-11T03:37:07.121Z,98131.25
2017-08-11T03:39:34.597Z,98139.16
2017-08-11T03:42:02.056Z,98196.52
2017-08-11T03:44:29.509Z,98227.15
2017-08-11T03:46:56.989Z,98260.26
2017-08-11T03:49:24.465Z,98280.56
2017-08-11T03:51:51.932Z,98278.83
2017-08-11T03:54:19.378Z,98291.73
2017-08-11T03:56:46.851Z,98307.38
2017-08-11T03:59:14.314Z,98289.98
2017-08-11T04:01:41.765Z,98302.56
2017-08-11T04:04:09.240Z,98305.69
2017-08-11T04:06:36.724Z,98302.05
2017-08-11T04:09:04.186Z,98323.03
2017-08-11T04:11:31.652Z,98299.36
2017-08-11T04:13:59.148Z,98346.44
2017-08-11T04:16:26.633Z,98341.55
2017-08-11T04:18:54.118Z,98270.66
2017-08-11T04:21:21.576Z,98236.48
2017-08-11T04:23:49.053Z,98285.84
2017-08-11T04:26:16.528Z,98318.24
2017-08-11T04:28:43.979Z,98305.21
2017-08-11T04:31:11.457Z,98315.53
2017-08-11T04:33:38.917Z,98337.34
2017-08-11T04:36:06.407Z,98290.03
2017-08-11T04:38:33.893Z,98235.83
2017-08-11T04:41:01.373Z,98252.39
2017-08-11T04:43:28.834Z,98313.73
2017-08-11T04:45:56.317Z,98313.66
2017-08-11T04:48:23.807Z,98271.22
2017-08-11T04:50:51.266Z,98231.49
2017-08-11T04:53:18.733Z,98280.63
2017-08-11T04:55:46.212Z,98249.44
2017-08-11T04:58:13.672Z,98217.13
2017-08-11T05:00:41.161Z,98219.10
2017-08-11T05:03:08.621Z,98230.14
2017-08-11T05:05:36.078Z,98290.23
2017-08-11T05:08:03.549Z,98293.77
2017-08-11T05:10:31.026Z,98258.91
2017-08-11T05:12:58.509Z,98262.58
2017-08-11T05:15:25.963Z,98280.52
2017-08-11T05:17:53.418Z,98272.05
2017-08-11T05:20:20.910Z,98264.53
2017-08-11T05:22:48.365Z,98251.16
2017-08-11T05:25:15.853Z,98234.33
2017-08-11T05:27:43.321Z,98246.90
2017-08-11T05:30:10.785Z,98280.85
2017-08-11T05:32:38.270Z,98280.09
2017-08-11T05:35:05.762Z,98290.65
2017-08-11T05:37:33.216Z,98299.89
2017-08-11T05:40:00.680Z,98306.11
2017-08-11T05:42:28.157Z,98277.69
2017-08-11T05:44:55.633Z,98239.34
2017-08-11T05:47:23.095Z,98217.50
2017-08-11T05:49:50.562Z,98209.17
2017-08-11T05:52:18.047Z,98204.03
2017-08-11T05:54:45.535Z,98233.66
2017-08-11T05:57:13.013Z,98299.70
2017-08-11T05:59:40.485Z,98375.33
2017-08-11T06:02:07.936Z,98460.21
2017-08-11T06:04:35.418Z,98381.20
2017-08-11T06:07:02.909Z,98297.65
2017-08-11T06:09:30.423Z,98216.13
2017-08-11T06:11:57.921Z,98297.65
2017-08-11T06:14:25.376Z,98250.94
2017-08-11T06:16:52.825Z,98251.41
2017-08-11T06:19:20.293Z,98216.78
2017-08-11T06:21:47.754Z,98196.16
2017-08-11T06:24:15.234Z,98226.39
2017-08-11T06:26:42.720Z,98216.23
2017-08-11T06:29:10.176Z,98222.21
2017-08-11T06:31:37.632Z,98215.95
2017-08-11T06:34:05.102Z,98304.59
2017-08-11T06:36:33.181Z,98356.34
2017-08-11T06:39:00.636Z,98304.49
2017-08-11T06:41:28.122Z,98325.65
2017-08-11T06:43:55.582Z,98330.67
2017-08-11T06:46:23.036Z,98296.88
2017-08-11T06:48:50.521Z,98278.17
2017-08-11T06:51:17.976Z,98273.88
2017-08-11T06:53:45.454Z,98274.98
2017-08-11T06:56:12.908Z,98267.14
2017-08-11T06:58:40.383Z,98262.81
2017-08-11T07:01:07.865Z,98269.12
2017-08-11T07:03:35.322Z,98285.37
2017-08-11T07:06:02.774Z,98282.78
2017-08-11T07:08:30.246Z,98273.92
2017-08-11T07:10:57.684Z,98278.72
2017-08-11T07:13:25.148Z,98282.12
2017-08-11T07:15:52.621Z,98280.94
2017-08-11T07:18:20.071Z,98271.14
2017-08-11T07:20:47.542Z,98264.08
2017-08-11T07:23:14.988Z,98258.25
2017-08-11T07:25:42.457Z,98244.77
2017-08-11T07:28:09.903Z,98233.92
2017-08-11T07:30:37.354Z,98225.81
2017-08-11T07:33:04.830Z,98242.67
2017-08-11T07:35:32.281Z,98249.49
2017-08-11T07:37:59.725Z,98244.31
2017-08-11T07:40:27.217Z,98259.49
2017-08-11T07:42:54.677Z,98255.06
2017-08-11T07:45:22.129Z,98246.13
2017-08-11T07:47:49.610Z,98244.66
2017-08-11T07:50:17.069Z,98247.78
2017-08-11T07:52:44.521Z,98246.23
2017-08-11T07:55:11.993Z,98259.09
2017-08-11T07:57:39.447Z,98246.61
2017-08-11T08:00:06.919Z,98247.97
2017-08-11T08:02:34.368Z,98237.12
2017-08-11T08:05:01.838Z,98228.56
2017-08-11T08:07:29.308Z,98232.09
2017-08-11T08:09:56.758Z,98240.67
2017-08-11T08:12:24.232Z,98255.36
2017-08-11T08:14:51.701Z,98258.84
2017-08-11T08:17:19.148Z,98242.85
2017-08-11T08:19:46.635Z,98224.27
2017-08-11T08:22:14.094Z,98215.03
2017-08-11T08:24:41.573Z,98228.84
2017-08-11T08:27:09.016Z,98237.80
2017-08-11T08:29:36.467Z,98234.28
2017-08-11T08:32:03.953Z,98224.33
2017-08-11T08:34:31.401Z,98230.59
2017-08-11T08:36:58.853Z,98243.72
2017-08-11T08:39:26.329Z,98243.38
2017-08-11T08:41:53.784Z,98221.25
2017-08-11T08:44:21.241Z,98197.17
2017-08-11T08:46:48.723Z,98184.63
2017-08-11T08:49:16.169Z,98170.33
2017-08-11T08:51:43.618Z,98155.99
2017-08-11T08:54:11.089Z,98152.67
2017-08-11T08:56:38.541Z,98158.64
2017-08-11T08:59:06.020Z,98121.89
2017-08-11T09:01:33.485Z,98097.21
2017-08-11T09:04:00.946Z,98111.94
2017-08-11T09:06:28.409Z,98131.75
2017-08-11T09:08:55.896Z,98189.91
2017-08-11T09:11:23.349Z,98312.40
2017-08-11T09:13:50.802Z,98375.75
2017-08-11T09:16:18.297Z,98223.78
2017-08-11T09:18:45.755Z,98129.52
2017-08-11T09:21:13.212Z,98224.78
2017-08-11T09:23:40.709Z,98210.43
2017-08-11T11:34:55.997Z,98247.30
2017-08-11T11:37:23.441Z,98250.09
2017-08-11T11:39:50.922Z,98255.34
2017-08-11T11:42:18.388Z,98245.95
2017-08-11T11:44:45.841Z,98220.50
2017-08-11T11:47:13.312Z,98219.50
2017-08-11T11:49:40.769Z,98203.97
2017-08-11T11:52:08.237Z,98217.57
2017-08-11T11:54:35.712Z,98239.16
2017-08-11T11:57:44.698Z,98297.83
2017-08-11T12:00:12.178Z,98358.12
2017-08-11T12:02:39.649Z,98336.34
2017-08-11T12:05:07.124Z,98237.36
2017-08-11T12:07:34.574Z,98121.61
2017-08-11T12:10:02.040Z,98116.83
2017-08-11T12:12:29.505Z,98129.12
2017-08-11T12:14:56.983Z,98105.23
2017-08-11T12:17:24.473Z,98084.17
2017-08-11T12:19:51.934Z,98066.38
2017-08-11T12:22:19.390Z,98100.67
2017-08-11T12:24:46.861Z,98104.55
2017-08-11T12:27:14.445Z,98085.48
2017-08-11T12:29:41.935Z,98093.50
2017-08-11T12:32:09.393Z,98080.33
2017-08-11T12:34:36.849Z,98119.39
2017-08-11T12:37:04.330Z,98176.83
2017-08-11T12:39:31.809Z,98162.14
2017-08-11T12:41:59.263Z,98146.22
2017-08-11T12:44:26.708Z,98149.83
2017-08-11T12:46:54.196Z,98168.23
2017-08-11T12:49:21.649Z,98161.36
2017-08-11T12:51:49.119Z,98189.50
2017-08-11T12:54:16.573Z,98198.05
2017-08-11T12:56:44.016Z,98196.70
2017-08-11T12:59:11.477Z,98200.11
2017-08-11T13:01:38.922Z,98186.04
2017-08-11T13:04:06.414Z,98194.19
2017-08-11T13:06:33.870Z,98182.91
2017-08-11T13:09:01.313Z,98190.73
2017-08-11T13:11:28.795Z,98211.22
2017-08-11T13:13:56.236Z,98216.81
2017-08-11T13:16:23.725Z,98214.84
2017-08-11T13:18:51.173Z,98217.69
2017-08-11T13:21:18.650Z,98217.95
2017-08-11T13:23:46.144Z,98204.06
2017-08-11T13:26:13.618Z,98213.66
2017-08-11T13:28:41.087Z,98218.20
2017-08-11T13:31:08.553Z,98229.69
2017-08-11T13:33:36.080Z,98216.61
2017-08-11T13:36:03.529Z,98226.64
2017-08-11T13:38:30.976Z,98224.03
2017-08-11T13:40:58.449Z,98204.78
2017-08-11T13:43:25.896Z,98222.11
2017-08-11T13:45:53.365Z,98230.67
2017-08-11T13:48:20.808Z,98231.58
2017-08-11T13:50:48.251Z,98247.23
2017-08-11T13:53:15.721Z,98252.17
2017-08-11T13:55:43.193Z,98256.02
2017-08-11T13:58:10.649Z,98255.75
2017-08-11T14:00:38.125Z,98261.67
2017-08-11T14:03:05.565Z,98259.30
2017-08-11T14:05:33.032Z,98252.03
2017-08-11T14:08:00.503Z,98232.91
2017-08-11T14:10:27.951Z,98240.48
2017-08-11T14:12:55.425Z,98235.82
2017-08-11T14:15:22.869Z,98238.13
2017-08-11T14:17:50.316Z,98230.99
2017-08-11T14:20:17.789Z,98249.55
2017-08-11T14:22:45.237Z,98247.97
2017-08-11T14:25:12.704Z,98243.55
2017-08-11T14:27:40.186Z,98232.10
2017-08-11T14:30:07.637Z,98227.21
2017-08-11T14:32:35.096Z,98205.87
2017-08-11T14:35:02.582Z,98210.73
2017-08-11T14:37:30.044Z,98217.16
2017-08-11T14:39:57.497Z,98219.67
2017-08-11T14:42:24.961Z,98209.67
2017-08-11T14:44:52.424Z,98205.00
2017-08-11T14:47:19.870Z,98200.27
2017-08-11T14:49:47.346Z,98194.33
2017-08-11T14:52:14.816Z,98199.31
2017-08-11T14:54:42.269Z,98190.35
2017-08-11T14:57:09.737Z,98225.13
2017-08-11T14:59:37.180Z,98231.70
2017-08-11T15:02:04.642Z,98227.28
2017-08-11T15:04:32.109Z,98234.52
2017-08-11T15:06:59.552Z,98249.31
2017-08-11T15:09:27.023Z,98260.94
2017-08-11T15:11:54.481Z,98265.55
2017-08-11T15:14:21.960Z,98265.73
2017-08-11T15:16:49.393Z,98285.19
2017-08-11T15:19:16.886Z,98285.94
2017-08-11T15:21:44.333Z,98282.34
2017-08-11T15:24:11.782Z,98284.95
2017-08-11T15:26:39.337Z,98278.27
2017-08-11T15:29:06.786Z,98273.92
2017-08-11T15:31:34.229Z,98276.67
2017-08-11T15:34:01.726Z,98273.86
2017-08-11T15:36:29.162Z,98267.24
2017-08-11T15:38:56.610Z,98274.62
2017-08-11T15:41:24.077Z,98273.01
2017-08-11T15:43:51.550Z,98259.97
2017-08-11T15:46:19.013Z,98263.26
2017-08-11T15:48:46.462Z,98273.06
2017-08-11T15:51:13.948Z,98266.72
2017-08-11T15:53:41.428Z,98270.70
2017-08-11T15:56:08.884Z,98270.30
2017-08-11T15:58:36.322Z,98262.33
2017-08-11T16:01:03.798Z,98278.91
2017-08-11T16:03:31.253Z,98270.77
2017-08-11T16:05:58.707Z,98267.80
2017-08-11T16:08:26.173Z,98264.34
2017-08-11T16:10:53.617Z,98257.38
2017-08-11T16:13:21.106Z,98244.07
2017-08-11T16:15:48.560Z,98245.40
2017-08-11T16:18:16.014Z,98249.44
2017-08-11T16:20:43.488Z,98243.18
2017-08-11T16:23:10.933Z,98241.55
2017-08-11T16:25:38.409Z,98249.02
2017-08-11T16:28:05.857Z,98255.91
2017-08-11T16:30:33.465Z,98244.67
2017-08-11T16:33:00.949Z,98241.98
2017-08-11T16:35:28.398Z,98246.52
2017-08-11T16:37:55.841Z,98242.66
2017-08-11T16:40:23.313Z,98242.09
2017-08-11T16:42:50.778Z,98232.28
2017-08-11T16:45:18.227Z,98243.66
2017-08-11T16:47:45.704Z,98240.20
2017-08-11T16:50:13.149Z,98235.47
2017-08-11T16:52:40.609Z,98231.98
2017-08-11T16:55:08.056Z,98242.80
2017-08-11T16:57:35.519Z,98247.04
2017-08-11T17:00:03.014Z,98243.22
2017-08-11T17:02:30.465Z,98234.55
2017-08-11T17:04:57.933Z,98245.52
2017-08-11T17:07:25.409Z,98249.66
2017-08-11T17:09:52.864Z,98262.89
2017-08-11T17:12:20.329Z,98266.84
2017-08-11T17:14:47.773Z,98265.59
2017-08-11T17:18:39.571Z,98275.02
2017-08-11T17:21:07.021Z,98285.37
2017-08-11T17:23:34.469Z,98279.67
2017-08-11T17:26:01.945Z,98282.64
2017-08-11T17:28:29.388Z,98284.67
2017-08-11T17:30:56.865Z,98275.13
2017-08-11T17:33:24.692Z,98271.02
2017-08-11T17:35:52.151Z,98279.02
2017-08-11T17:38:19.591Z,98273.31
2017-08-11T17:40:47.062Z,98281.55
2017-08-11T17:43:14.629Z,98274.05
2017-08-11T17:45:42.075Z,98276.36
2017-08-11T17:48:09.529Z,98282.72
2017-08-11T17:50:37.010Z,98275.67
2017-08-11T17:53:04.468Z,98274.00
2017-08-11T17:55:31.936Z,98278.88
2017-08-11T17:57:59.374Z,98284.06
2017-08-11T18:00:26.836Z,98286.28
2017-08-11T18:02:54.297Z,98290.17
2017-08-11T18:05:21.743Z,98290.17
2017-08-11T18:07:49.216Z,98293.73
2017-08-11T18:10:16.667Z,98294.36
2017-08-11T18:12:44.114Z,98295.78
2017-08-11T18:15:11.577Z,98294.72
2017-08-11T18:17:39.023Z,98293.73
2017-08-11T18:20:06.486Z,98298.61
2017-08-11T18:22:33.949Z,98299.45
2017-08-11T18:25:01.417Z,98315.66
2017-08-11T18:27:28.858Z,98310.59
2017-08-11T18:29:56.329Z,98322.66
2017-08-11T18:32:23.777Z,98325.43
2017-08-11T18:34:51.251Z,98320.81
2017-08-11T18:37:18.716Z,98325.09
2017-08-11T18:39:46.170Z,98327.11
2017-08-11T18:42:13.628Z,98328.28
2017-08-11T18:44:41.097Z,98330.03
2017-08-11T18:47:08.545Z,98327.50
2017-08-11T18:49:36.321Z,98341.80
2017-08-11T18:52:03.792Z,98342.31
2017-08-11T18:54:31.242Z,98345.23
2017-08-11T18:56:58.708Z,98346.06
2017-08-11T18:59:26.177Z,98346.16
2017-08-11T19:01:53.618Z,98343.16
2017-08-11T19:04:21.101Z,98338.87
2017-08-11T19:06:48.545Z,98336.59
2017-08-11T19:09:16.022Z,98341.24
2017-08-11T19:11:43.468Z,98353.42
2017-08-11T19:14:10.937Z,98355.88
2017-08-11T19:16:38.387Z,98355.77
2017-08-11T19:19:05.873Z,98356.39
2017-08-11T19:21:33.317Z,98352.23
2017-08-11T19:24:00.780Z,98342.03
2017-08-11T19:26:28.270Z,98344.74
2017-08-11T19:28:55.722Z,98337.91
2017-08-11T19:31:23.210Z,98339.98
2017-08-11T19:33:50.700Z,98346.03
2017-08-11T19:36:18.150Z,98348.59
2017-08-11T19:38:45.614Z,98347.37
2017-08-11T19:41:13.103Z,98342.05
2017-08-11T19:43:40.577Z,98347.42
2017-08-11T19:46:08.031Z,98349.44
2017-08-11T19:48:35.516Z,98346.56
2017-08-11T19:51:02.957Z,98357.33
2017-08-11T19:53:30.428Z,98366.31
2017-08-11T19:55:57.876Z,98368.11
2017-08-11T19:58:25.340Z,98365.75
2017-08-11T20:00:52.809Z,98359.20
2017-08-11T20:03:20.276Z,98360.13
2017-08-11T20:05:47.732Z,98357.57
2017-08-11T20:08:15.204Z,98364.46
2017-08-11T20:10:42.652Z,98361.59
2017-08-11T20:13:10.093Z,98371.80
2017-08-11T20:15:37.571Z,98373.08
2017-08-11T20:18:05.029Z,98379.02
2017-08-11T20:20:32.481Z,98381.67
2017-08-11T20:22:59.951Z,98384.98
2017-08-11T20:25:27.429Z,98394.17
2017-08-11T20:27:54.879Z,98392.11
2017-08-11T20:30:22.334Z,98386.96
2017-08-11T20:32:49.804Z,98389.23
2017-08-11T20:35:17.273Z,98400.45
2017-08-11T20:37:44.716Z,98393.67
2017-08-11T20:40:12.190Z,98397.12
2017-08-11T20:42:39.629Z,98400.19
2017-08-11T20:45:07.073Z,98401.80
2017-08-11T20:47:34.537Z,98394.48
2017-08-11T20:50:01.989Z,98389.34
2017-08-11T20:52:29.433Z,98390.23
2017-08-11T20:54:56.903Z,98383.08
2017-08-11T20:57:24.346Z,98381.95
2017-08-11T20:59:51.797Z,98387.78
2017-08-11T21:02:19.260Z,98389.86
2017-08-11T21:04:46.702Z,98389.91
2017-08-11T21:07:14.173Z,98383.92
2017-08-11T21:09:41.623Z,98389.58
2017-08-11T21:12:09.098Z,98391.00
2017-08-11T21:14:36.548Z,98393.53
2017-08-11T21:17:04.006Z,98395.52
2017-08-11T21:19:31.468Z,98396.60
2017-08-11T21:21:58.941Z,98389.25
2017-08-11T21:24:26.381Z,98403.23
2017-08-11T21:26:53.833Z,98390.27
2017-08-11T21:29:21.299Z,98395.92
2017-08-11T21:31:48.771Z,98391.30
2017-08-11T21:34:16.221Z,98390.19
2017-08-11T21:36:43.676Z,98386.98
2017-08-11T21:39:11.148Z,98383.86
2017-08-11T21:41:38.604Z,98387.59
2017-08-11T21:44:06.090Z,98386.69
2017-08-11T21:46:33.531Z,98381.08
2017-08-11T21:49:00.989Z,98379.58
2017-08-11T21:51:28.453Z,98386.92
2017-08-11T21:53:55.899Z,98377.27
2017-08-11T21:56:23.373Z,98386.61
2017-08-11T21:58:50.837Z,98392.87
2017-08-11T22:01:18.315Z,98396.41
2017-08-11T22:03:45.761Z,98401.92
2017-08-11T22:06:19.178Z,98407.20
2017-08-11T22:08:46.657Z,98409.23
2017-08-11T22:11:14.102Z,98408.71
2017-08-11T22:13:41.603Z,98401.37
2017-08-11T22:16:09.066Z,98403.86
2017-08-11T22:18:36.508Z,98402.69
2017-08-11T22:21:03.980Z,98403.20
2017-08-11T22:23:31.450Z,98397.17
2017-08-11T22:25:58.920Z,98405.75
2017-08-11T22:28:26.386Z,98406.07
2017-08-11T22:30:53.857Z,98409.27
2017-08-11T22:33:21.305Z,98408.27
2017-08-11T22:35:48.784Z,98406.70
2017-08-11T22:38:16.227Z,98399.80
2017-08-11T22:40:43.672Z,98404.64
2017-08-11T22:43:11.140Z,98399.55
2017-08-11T22:45:38.590Z,98403.89
2017-08-11T22:48:06.064Z,98401.58
2017-08-11T22:50:33.550Z,98408.05
2017-08-11T22:53:01.005Z,98402.00
2017-08-11T22:55:28.474Z,98410.17
2017-08-11T22:57:55.912Z,98412.58
2017-08-11T23:00:23.378Z,98413.66
2017-08-11T23:02:50.824Z,98412.10
2017-08-11T23:05:18.288Z,98410.06
2017-08-11T23:07:45.761Z,98410.17
2017-08-11T23:10:13.224Z,98410.55
2017-08-11T23:12:40.673Z,98419.59
2017-08-11T23:15:08.149Z,98414.02
2017-08-11T23:17:35.599Z,98409.63
2017-08-11T23:20:03.071Z,98405.84
2017-08-11T23:22:30.536Z,98406.80
2017-08-11T23:24:57.976Z,98414.30
2017-08-11T23:27:25.442Z,98413.03
2017-08-11T23:29:52.902Z,98412.45
2017-08-11T23:32:20.357Z,98412.98
2017-08-11T23:34:47.806Z,98413.34
2017-08-11T23:37:15.268Z,98423.83
2017-08-11T23:39:42.712Z,98426.59
2017-08-11T23:42:10.178Z,98427.05
2017-08-11T23:44:37.638Z,98420.23
2017-08-11T23:47:05.090Z,98422.45
2017-08-11T23:49:33.137Z,98419.11
2017-08-11T23:52:00.584Z,98421.48
2017-08-11T23:54:28.025Z,98421.35
2017-08-11T23:56:55.490Z,98415.08
2017-08-11T23:59:22.930Z,98413.58
